Time;durP1;ratioP1;P1;durP2;ratioP2;P2;SDS_P1;SDS_P2;PMS_P1;PMS_P2;Temp;Humidity;BMP_temperature;BMP_pressure;BME280_temperature;BME280_humidity;BME280_pressure;Samples;Min_cycle;Max_cycle;Signal;HPM_P1;HPM_P2
2024/01/03 00:02:00;;;;;;;0.08;0.08;;;8.80;99.90;;;;;;5071778;28;20487;-69
2024/01/03 00:04:27;;;;;;;0.10;0.10;;;8.80;99.90;;;;;;5071952;28;20383;-72
2024/01/03 00:06:52;;;;;;;0.10;0.10;;;8.80;99.90;;;;;;5062001;28;20053;-73
2024/01/03 00:09:18;;;;;;;2.85;0.70;;;8.70;99.90;;;;;;5052384;28;20048;-68
2024/01/03 00:11:45;;;;;;;0.63;0.40;;;8.70;99.90;;;;;;5054437;28;20100;-69
2024/01/03 00:14:31;;;;;;;0.28;0.08;;;8.70;99.90;;;;;;5051582;28;20044;-70
2024/01/03 00:17:15;;;;;;;0.10;0.10;;;8.70;99.90;;;;;;5091830;28;20492;-67
2024/01/03 00:19:42;;;;;;;0.10;0.10;;;8.70;99.90;;;;;;5062207;28;20135;-70
2024/01/03 00:22:10;;;;;;;12.63;1.55;;;8.70;99.90;;;;;;5061418;28;20044;-68
2024/01/03 00:24:46;;;;;;;0.13;0.13;;;8.70;99.90;;;;;;5070830;28;20123;-68
2024/01/03 00:27:12;;;;;;;0.10;0.10;;;8.70;99.90;;;;;;5089188;28;20114;-68
2024/01/03 00:29:57;;;;;;;1.45;0.82;;;8.70;99.90;;;;;;5068558;28;20040;-69
2024/01/03 00:32:23;;;;;;;0.13;0.13;;;8.70;99.90;;;;;;5064349;28;20600;-70
2024/01/03 00:34:49;;;;;;;0.00;0.00;;;8.70;99.90;;;;;;5051405;28;20029;-70
2024/01/03 00:37:18;;;;;;;0.10;0.10;;;8.70;99.90;;;;;;5054874;28;20051;-69
2024/01/03 00:39:43;;;;;;;0.10;0.10;;;8.60;99.90;;;;;;5055296;28;20049;-71
2024/01/03 00:42:09;;;;;;;1.02;1.00;;;8.60;99.90;;;;;;5055246;28;20066;-73
2024/01/03 00:44:34;;;;;;;0.43;0.30;;;8.60;99.90;;;;;;5064976;28;20086;-70
2024/01/03 00:47:00;;;;;;;0.10;0.10;;;8.50;99.90;;;;;;5058549;28;20044;-69
2024/01/03 00:49:26;;;;;;;0.28;0.28;;;8.50;99.90;;;;;;5069926;28;20483;-71
2024/01/03 00:51:51;;;;;;;0.63;0.63;;;8.50;99.90;;;;;;5066879;28;20048;-72
2024/01/03 00:54:19;;;;;;;0.20;0.20;;;8.40;99.90;;;;;;5061830;28;20379;-70
2024/01/03 00:56:45;;;;;;;0.10;0.10;;;8.40;99.90;;;;;;5070167;28;20029;-69
2024/01/03 00:59:12;;;;;;;0.30;0.30;;;8.30;99.90;;;;;;5062318;28;20086;-71
2024/01/03 01:01:37;;;;;;;0.00;0.00;;;8.30;99.90;;;;;;5067713;28;20049;-68
2024/01/03 01:04:03;;;;;;;0.32;0.32;;;8.40;99.90;;;;;;5069533;28;20116;-70
2024/01/03 01:06:29;;;;;;;0.00;0.00;;;8.40;99.90;;;;;;5065770;28;20043;-71
2024/01/03 01:08:55;;;;;;;0.08;0.08;;;8.40;99.90;;;;;;5058280;28;20093;-70
2024/01/03 01:11:21;;;;;;;1.00;0.25;;;8.40;99.90;;;;;;5066102;28;20040;-71
2024/01/03 01:13:46;;;;;;;0.10;0.10;;;8.50;99.90;;;;;;5059652;28;20378;-73
2024/01/03 01:16:12;;;;;;;0.10;0.10;;;8.50;99.90;;;;;;5064051;28;20086;-69
2024/01/03 01:18:40;;;;;;;0.10;0.10;;;8.50;99.90;;;;;;5085632;28;20045;-68
2024/01/03 01:21:06;;;;;;;0.08;0.08;;;8.50;99.90;;;;;;5072674;28;20095;-70
2024/01/03 01:23:33;;;;;;;0.10;0.10;;;8.50;99.90;;;;;;5069305;28;20491;-68
2024/01/03 01:25:58;;;;;;;0.80;0.55;;;8.60;99.90;;;;;;5067803;28;20037;-67
2024/01/03 01:28:24;;;;;;;0.08;0.08;;;8.60;99.90;;;;;;5060335;28;20190;-70
2024/01/03 01:30:50;;;;;;;0.25;0.25;;;8.60;99.90;;;;;;5068056;28;20055;-70
2024/01/03 01:33:15;;;;;;;0.85;0.85;;;8.70;99.90;;;;;;5068425;28;20056;-67
2024/01/03 01:35:41;;;;;;;0.30;0.30;;;8.70;99.90;;;;;;5066480;28;20041;-69
2024/01/03 01:38:06;;;;;;;0.05;0.05;;;8.70;99.90;;;;;;5062701;28;20048;-68
2024/01/03 01:40:32;;;;;;;0.00;0.00;;;8.70;99.90;;;;;;5064953;28;20048;-72
2024/01/03 01:42:58;;;;;;;0.00;0.00;;;8.80;99.90;;;;;;5062693;28;20037;-71
2024/01/03 01:45:23;;;;;;;2.92;2.83;;;8.70;99.90;;;;;;5071322;28;20059;-70
2024/01/03 01:47:50;;;;;;;0.10;0.10;;;8.80;99.90;;;;;;5067684;28;20487;-66
2024/01/03 01:50:18;;;;;;;0.80;0.35;;;8.80;99.90;;;;;;5064695;28;20059;-69
2024/01/03 01:52:44;;;;;;;0.10;0.10;;;8.90;99.90;;;;;;5064663;28;20060;-71
2024/01/03 01:55:11;;;;;;;0.00;0.00;;;9.00;99.90;;;;;;5059103;28;20037;-73
2024/01/03 01:57:39;;;;;;;0.00;0.00;;;9.00;99.90;;;;;;5067709;28;20036;-69
2024/01/03 02:00:07;;;;;;;0.22;0.20;;;9.00;99.90;;;;;;5063402;28;20510;-68
2024/01/03 02:02:35;;;;;;;0.00;0.00;;;9.10;99.90;;;;;;5070906;28;20040;-71
2024/01/03 02:05:01;;;;;;;0.15;0.15;;;9.00;99.90;;;;;;5089409;28;20128;-71
2024/01/03 02:07:27;;;;;;;1.02;0.32;;;9.10;99.90;;;;;;5066958;28;20032;-75
2024/01/03 02:09:53;;;;;;;0.10;0.10;;;9.10;99.90;;;;;;5058463;28;20045;-68
2024/01/03 02:12:28;;;;;;;0.10;0.10;;;9.10;99.90;;;;;;5068214;28;20072;-69
2024/01/03 02:14:54;;;;;;;0.20;0.20;;;9.10;99.90;;;;;;5061845;28;20036;-67
2024/01/03 02:17:20;;;;;;;0.00;0.00;;;9.10;99.90;;;;;;5090267;28;20518;-71
2024/01/03 02:19:46;;;;;;;0.00;0.00;;;9.10;99.90;;;;;;5060626;28;20045;-71
2024/01/03 02:22:11;;;;;;;0.10;0.10;;;9.10;99.90;;;;;;5066491;28;20047;-70
2024/01/03 02:24:37;;;;;;;0.00;0.00;;;9.00;99.90;;;;;;5065519;28;20040;-70
2024/01/03 02:27:03;;;;;;;0.22;0.22;;;9.10;99.90;;;;;;5068895;28;20123;-71
2024/01/03 02:29:28;;;;;;;0.20;0.20;;;9.10;99.90;;;;;;5063920;28;20124;-67
2024/01/03 02:31:54;;;;;;;0.45;0.17;;;9.00;99.90;;;;;;5091753;28;20212;-73
2024/01/03 02:34:19;;;;;;;0.52;0.47;;;9.00;99.90;;;;;;5065631;28;20093;-68
2024/01/03 02:36:51;;;;;;;0.00;0.00;;;9.00;99.90;;;;;;5062190;28;20071;-67
2024/01/03 02:39:18;;;;;;;0.15;0.15;;;9.10;99.90;;;;;;5089002;28;20407;-66
2024/01/03 02:41:43;;;;;;;0.10;0.10;;;9.00;99.90;;;;;;5065971;28;20064;-67
2024/01/03 02:44:10;;;;;;;0.10;0.10;;;8.90;99.90;;;;;;5067792;28;20036;-68
2024/01/03 02:46:36;;;;;;;0.20;0.20;;;8.90;99.90;;;;;;5093737;28;20052;-67
2024/01/03 02:49:02;;;;;;;0.10;0.10;;;8.90;99.90;;;;;;5052204;28;20036;-67
2024/01/03 02:51:27;;;;;;;8.30;0.55;;;8.90;99.90;;;;;;5080899;28;20032;-70
2024/01/03 02:53:53;;;;;;;0.10;0.10;;;8.90;99.90;;;;;;5063398;28;20075;-69
2024/01/03 02:56:18;;;;;;;0.10;0.10;;;8.90;99.90;;;;;;5067181;28;20036;-68
2024/01/03 02:58:44;;;;;;;1.27;1.17;;;9.00;99.90;;;;;;5067646;28;20414;-70
2024/01/03 03:01:10;;;;;;;0.17;0.15;;;9.00;99.90;;;;;;5067559;28;20036;-68
2024/01/03 03:03:35;;;;;;;0.30;0.30;;;8.90;99.90;;;;;;5063285;28;20432;-72
2024/01/03 03:06:02;;;;;;;0.30;0.30;;;9.00;99.90;;;;;;5066976;28;20071;-73
2024/01/03 03:08:28;;;;;;;0.10;0.10;;;9.00;99.90;;;;;;5064547;28;20075;-69
2024/01/03 03:10:53;;;;;;;0.20;0.20;;;9.00;99.90;;;;;;5070842;28;20076;-69
2024/01/03 03:13:19;;;;;;;0.10;0.05;;;9.00;99.90;;;;;;5068396;28;20060;-69
2024/01/03 03:15:46;;;;;;;0.10;0.10;;;9.00;99.90;;;;;;5078269;28;20040;-69
2024/01/03 03:18:12;;;;;;;1.85;1.52;;;8.90;99.90;;;;;;5065362;28;20048;-69
2024/01/03 03:20:38;;;;;;;0.20;0.15;;;8.90;99.90;;;;;;5073108;28;20513;-69
2024/01/03 03:23:03;;;;;;;2.20;1.17;;;9.00;99.90;;;;;;5061019;28;20162;-69
2024/01/03 03:25:29;;;;;;;0.10;0.10;;;9.00;99.90;;;;;;5070955;28;20068;-72
2024/01/03 03:27:54;;;;;;;0.08;0.08;;;9.10;99.90;;;;;;5063475;28;20037;-68
2024/01/03 03:30:20;;;;;;;0.10;0.10;;;9.20;99.90;;;;;;5071504;28;20055;-70
2024/01/03 03:32:47;;;;;;;0.10;0.10;;;9.30;99.90;;;;;;5074977;28;20036;-69
2024/01/03 03:35:12;;;;;;;1.77;1.48;;;9.40;99.90;;;;;;5066769;28;20502;-71
2024/01/03 03:37:42;;;;;;;3.25;0.65;;;9.50;99.90;;;;;;5081775;28;20037;-69
2024/01/03 03:40:08;;;;;;;1.00;0.30;;;9.50;99.90;;;;;;5067019;28;20044;-67
2024/01/03 03:42:33;;;;;;;0.13;0.13;;;9.50;99.90;;;;;;5075936;28;20036;-72
2024/01/03 03:44:59;;;;;;;0.55;0.20;;;9.60;99.90;;;;;;5065513;28;20037;-71
2024/01/03 03:47:25;;;;;;;0.00;0.00;;;9.60;99.90;;;;;;5065988;28;20033;-68
2024/01/03 03:49:50;;;;;;;0.00;0.00;;;9.70;99.90;;;;;;5067501;28;20045;-73
2024/01/03 03:52:16;;;;;;;0.10;0.10;;;9.70;99.90;;;;;;5068192;28;20036;-68
2024/01/03 03:54:41;;;;;;;26.65;2.25;;;9.70;99.90;;;;;;5072211;28;20080;-70
2024/01/03 03:57:07;;;;;;;0.10;0.10;;;9.70;99.90;;;;;;5067449;28;20037;-71
2024/01/03 03:59:34;;;;;;;11.98;0.47;;;9.70;99.90;;;;;;5068464;28;20045;-70
2024/01/03 04:01:59;;;;;;;18.77;1.38;;;9.70;99.90;;;;;;5068886;28;20128;-69
2024/01/03 04:04:25;;;;;;;0.10;0.10;;;9.70;99.90;;;;;;5071730;28;20131;-68
2024/01/03 04:06:50;;;;;;;0.50;0.17;;;9.50;99.90;;;;;;5054434;28;20602;-72
2024/01/03 04:09:16;;;;;;;3.88;0.68;;;9.50;99.90;;;;;;5072030;28;20040;-69
2024/01/03 04:11:42;;;;;;;0.00;0.00;;;9.40;99.90;;;;;;5065503;28;20040;-75
2024/01/03 04:14:09;;;;;;;0.30;0.28;;;9.40;99.90;;;;;;5063615;28;20048;-67
2024/01/03 04:16:35;;;;;;;0.30;0.28;;;9.40;99.90;;;;;;5068446;28;20028;-68
2024/01/03 04:19:01;;;;;;;0.20;0.20;;;9.40;99.90;;;;;;5071752;28;20102;-69
2024/01/03 04:21:30;;;;;;;0.20;0.20;;;9.40;99.90;;;;;;5066559;28;20105;-68
2024/01/03 04:23:57;;;;;;;1.23;0.60;;;9.40;99.90;;;;;;5067001;28;20024;-67
2024/01/03 04:26:23;;;;;;;6.88;0.95;;;9.30;99.90;;;;;;5074315;28;20033;-68
2024/01/03 04:28:48;;;;;;;0.20;0.20;;;9.30;99.90;;;;;;5067359;28;20046;-70
2024/01/03 04:31:14;;;;;;;1.55;0.30;;;9.30;99.90;;;;;;5068130;28;20046;-69
2024/01/03 04:33:40;;;;;;;1.10;1.00;;;9.20;99.90;;;;;;5072701;28;20119;-67
2024/01/03 04:36:06;;;;;;;1.13;0.60;;;9.20;99.90;;;;;;5069537;28;20037;-68
2024/01/03 04:38:32;;;;;;;0.20;0.20;;;9.30;99.90;;;;;;5069810;28;20048;-70
2024/01/03 04:40:58;;;;;;;0.40;0.40;;;9.30;99.90;;;;;;5067062;28;20071;-67
2024/01/03 04:43:23;;;;;;;0.20;0.20;;;9.40;99.90;;;;;;5065655;28;20048;-69
2024/01/03 04:45:49;;;;;;;1.95;0.47;;;9.50;99.90;;;;;;5071447;28;20044;-68
2024/01/03 04:48:15;;;;;;;4.60;1.00;;;9.60;99.90;;;;;;5064410;28;20090;-69
2024/01/03 04:50:40;;;;;;;1.08;0.95;;;9.60;99.90;;;;;;5068577;28;20044;-72
2024/01/03 04:53:06;;;;;;;31.45;0.68;;;9.70;99.90;;;;;;5069196;28;20040;-72
2024/01/03 04:55:32;;;;;;;0.50;0.50;;;9.70;99.90;;;;;;5064583;28;20043;-73
2024/01/03 04:57:58;;;;;;;0.60;0.50;;;9.70;99.90;;;;;;5066975;28;20047;-68
2024/01/03 05:00:23;;;;;;;0.35;0.35;;;9.70;99.90;;;;;;5064525;28;20045;-70
2024/01/03 05:02:49;;;;;;;0.10;0.10;;;9.70;99.90;;;;;;5065053;28;20037;-69
2024/01/03 05:05:14;;;;;;;0.10;0.10;;;9.70;99.90;;;;;;5084734;28;20065;-70
2024/01/03 05:07:40;;;;;;;0.20;0.20;;;9.80;99.90;;;;;;5060771;28;20045;-66
2024/01/03 05:10:09;;;;;;;0.35;0.17;;;9.80;99.90;;;;;;5065198;28;20032;-70
2024/01/03 05:12:36;;;;;;;0.10;0.10;;;9.80;99.90;;;;;;5094971;28;20066;-73
2024/01/03 05:15:06;;;;;;;8.75;0.82;;;9.80;99.90;;;;;;5062259;28;20539;-67
2024/01/03 05:17:32;;;;;;;0.15;0.15;;;9.80;99.90;;;;;;5064051;28;20458;-70
2024/01/03 05:19:58;;;;;;;3.78;2.42;;;9.80;99.90;;;;;;5063329;28;20131;-70
2024/01/03 05:22:23;;;;;;;0.35;0.35;;;9.80;99.90;;;;;;5057652;28;20036;-68
2024/01/03 05:24:49;;;;;;;12.52;0.43;;;9.80;99.90;;;;;;5060958;28;20406;-66
2024/01/03 05:27:15;;;;;;;6.13;0.65;;;9.70;99.90;;;;;;5093817;28;20037;-70
2024/01/03 05:29:41;;;;;;;2.83;1.42;;;9.80;99.90;;;;;;5060665;28;20037;-70
2024/01/03 05:32:07;;;;;;;0.15;0.15;;;9.70;99.90;;;;;;5057800;28;20032;-71
2024/01/03 05:34:32;;;;;;;0.00;0.00;;;9.70;99.90;;;;;;5057167;28;20463;-67
2024/01/03 05:36:58;;;;;;;6.22;0.60;;;9.70;99.90;;;;;;5059424;28;20055;-72
2024/01/03 05:39:23;;;;;;;1.50;0.20;;;9.70;99.90;;;;;;5060237;28;20036;-70
2024/01/03 05:41:49;;;;;;;0.05;0.05;;;9.70;99.90;;;;;;5066469;28;20095;-69
2024/01/03 05:44:15;;;;;;;0.30;0.13;;;9.70;99.90;;;;;;5061660;28;20040;-71
2024/01/03 05:46:42;;;;;;;1.75;1.20;;;9.70;99.90;;;;;;5061490;28;20593;-68
2024/01/03 05:49:08;;;;;;;0.10;0.10;;;9.80;99.90;;;;;;5065770;28;20040;-69
2024/01/03 05:51:33;;;;;;;1.27;0.75;;;9.80;99.90;;;;;;5064065;28;20475;-69
2024/01/03 05:53:59;;;;;;;0.38;0.38;;;9.70;99.90;;;;;;5062051;28;20509;-74
2024/01/03 05:56:24;;;;;;;0.68;0.40;;;9.70;99.90;;;;;;5064147;28;20033;-67
2024/01/03 05:58:51;;;;;;;2.53;1.30;;;9.60;99.90;;;;;;5054787;28;20131;-69
2024/01/03 06:01:16;;;;;;;0.20;0.20;;;9.70;99.90;;;;;;5058522;28;20083;-68
2024/01/03 06:03:42;;;;;;;0.47;0.47;;;9.70;99.90;;;;;;5064446;28;20032;-67
2024/01/03 06:06:08;;;;;;;14.25;2.05;;;9.60;99.90;;;;;;5087740;27;20089;-71
2024/01/03 06:08:33;;;;;;;12.07;0.75;;;9.60;99.90;;;;;;5061896;28;20039;-69
2024/01/03 06:10:59;;;;;;;8.15;1.27;;;9.50;99.90;;;;;;5061570;28;20360;-69
2024/01/03 06:13:25;;;;;;;1.45;0.75;;;9.50;99.90;;;;;;5058850;28;20033;-67
2024/01/03 06:15:50;;;;;;;0.60;0.60;;;9.50;99.90;;;;;;5062180;28;20076;-71
2024/01/03 06:18:16;;;;;;;4.95;2.05;;;9.60;99.90;;;;;;5059350;28;20293;-70
2024/01/03 06:20:42;;;;;;;0.30;0.30;;;9.60;99.90;;;;;;5064716;28;20041;-68
2024/01/03 06:23:08;;;;;;;0.10;0.10;;;9.70;99.90;;;;;;5062921;28;20024;-73
2024/01/03 06:25:34;;;;;;;0.03;0.03;;;9.70;99.90;;;;;;5064156;28;20113;-71
2024/01/03 06:27:59;;;;;;;3.05;0.45;;;9.70;99.90;;;;;;5063253;28;20044;-69
2024/01/03 06:30:25;;;;;;;0.40;0.20;;;9.70;99.90;;;;;;5063981;28;20507;-69
2024/01/03 06:32:51;;;;;;;0.10;0.10;;;9.70;99.90;;;;;;5065136;28;20559;-71
2024/01/03 06:35:17;;;;;;;0.52;0.32;;;9.70;99.90;;;;;;5065135;28;20051;-74
2024/01/03 06:37:42;;;;;;;0.75;0.68;;;9.70;99.90;;;;;;5066244;28;20040;-70
2024/01/03 06:40:08;;;;;;;0.10;0.10;;;9.70;99.90;;;;;;5096812;28;20585;-75
2024/01/03 06:42:34;;;;;;;0.63;0.20;;;9.70;99.90;;;;;;5056954;28;20449;-74
2024/01/03 06:44:59;;;;;;;0.40;0.40;;;9.70;99.90;;;;;;5063474;28;20120;-70
2024/01/03 06:47:25;;;;;;;0.22;0.20;;;9.70;99.90;;;;;;5063832;28;20072;-69
2024/01/03 06:49:51;;;;;;;0.45;0.28;;;9.70;99.90;;;;;;5067746;28;20047;-68
2024/01/03 06:52:16;;;;;;;2.75;0.57;;;9.70;99.90;;;;;;5062575;28;20120;-72
2024/01/03 06:54:42;;;;;;;0.00;0.00;;;9.80;99.90;;;;;;5064850;28;20473;-68
2024/01/03 06:57:07;;;;;;;10.15;0.52;;;9.80;99.90;;;;;;5066276;28;20123;-71
2024/01/03 06:59:36;;;;;;;0.47;0.47;;;9.80;99.90;;;;;;5066500;28;20047;-70
2024/01/03 07:02:02;;;;;;;1.35;0.90;;;9.70;99.90;;;;;;5063806;28;20114;-68
2024/01/03 07:04:28;;;;;;;1.05;0.30;;;9.70;99.90;;;;;;5065964;28;20479;-69
2024/01/03 07:06:54;;;;;;;0.15;0.15;;;9.70;99.90;;;;;;5063932;28;20091;-68
2024/01/03 07:09:20;;;;;;;0.20;0.20;;;9.70;99.90;;;;;;5081994;28;20040;-70
2024/01/03 07:11:45;;;;;;;13.20;0.40;;;9.60;99.90;;;;;;5064992;28;20048;-70
2024/01/03 07:14:13;;;;;;;0.10;0.10;;;9.60;99.90;;;;;;5063478;28;20031;-69
2024/01/03 07:16:39;;;;;;;1.48;1.38;;;9.60;99.90;;;;;;5058006;28;20044;-69
2024/01/03 07:19:05;;;;;;;1.20;0.60;;;9.60;99.90;;;;;;5064261;28;20433;-72
2024/01/03 07:21:31;;;;;;;0.10;0.10;;;9.60;99.90;;;;;;5067375;28;20081;-70
2024/01/03 07:23:57;;;;;;;0.10;0.10;;;9.60;99.90;;;;;;5065000;28;20094;-65
2024/01/03 07:26:22;;;;;;;3.30;0.63;;;9.70;99.90;;;;;;5066999;28;20387;-68
2024/01/03 07:28:48;;;;;;;0.10;0.10;;;9.70;99.90;;;;;;5054178;28;20094;-67
2024/01/03 07:31:13;;;;;;;2.00;1.13;;;9.60;99.90;;;;;;5054979;28;20044;-69
2024/01/03 07:33:40;;;;;;;0.57;0.57;;;9.70;99.90;;;;;;5049420;28;20056;-67
2024/01/03 07:36:06;;;;;;;0.63;0.20;;;9.60;99.90;;;;;;5057729;28;20079;-68
2024/01/03 07:38:32;;;;;;;0.25;0.25;;;9.60;99.90;;;;;;5059259;28;20048;-72
2024/01/03 07:40:59;;;;;;;1.00;0.77;;;9.70;99.90;;;;;;5066984;28;20509;-67
2024/01/03 07:43:26;;;;;;;2.22;0.60;;;9.70;99.90;;;;;;5062633;28;20422;-73
2024/01/03 07:45:52;;;;;;;0.10;0.10;;;9.60;99.90;;;;;;5067511;28;20420;-70
2024/01/03 07:48:18;;;;;;;0.38;0.38;;;9.50;99.90;;;;;;5062610;28;20039;-73
2024/01/03 07:50:44;;;;;;;1.27;0.20;;;9.50;99.90;;;;;;5065923;28;20446;-70
2024/01/03 07:53:09;;;;;;;0.75;0.70;;;9.50;99.90;;;;;;5065857;28;20040;-72
2024/01/03 07:55:35;;;;;;;0.10;0.10;;;9.50;99.90;;;;;;5066728;28;20032;-67
2024/01/03 07:58:01;;;;;;;1.38;0.50;;;9.50;99.90;;;;;;5051709;28;20056;-69
2024/01/03 08:00:29;;;;;;;0.20;0.20;;;9.50;99.90;;;;;;5065090;28;20032;-67
2024/01/03 08:02:55;;;;;;;1.42;0.38;;;9.60;99.90;;;;;;5059425;28;20499;-69
2024/01/03 08:05:20;;;;;;;0.38;0.38;;;9.60;99.90;;;;;;5059551;28;20087;-69
2024/01/03 08:07:46;;;;;;;0.10;0.10;;;9.60;99.90;;;;;;5074248;28;20041;-68
2024/01/03 08:10:11;;;;;;;3.40;0.38;;;9.70;99.90;;;;;;5075477;28;20081;-73
2024/01/03 08:12:37;;;;;;;0.47;0.45;;;9.70;99.90;;;;;;5062265;28;20048;-69
2024/01/03 08:15:03;;;;;;;0.10;0.10;;;9.70;99.90;;;;;;5059836;28;20047;-69
2024/01/03 08:17:28;;;;;;;5.72;1.65;;;9.70;99.90;;;;;;5067814;28;20135;-70
2024/01/03 08:19:54;;;;;;;0.85;0.57;;;9.70;99.90;;;;;;5071077;28;20364;-68
2024/01/03 08:22:20;;;;;;;4.05;0.38;;;9.70;99.90;;;;;;5066696;28;20515;-69
2024/01/03 08:24:45;;;;;;;0.10;0.10;;;9.80;99.90;;;;;;5060314;28;20483;-66
2024/01/03 08:27:11;;;;;;;2.97;0.75;;;9.80;99.90;;;;;;5058666;28;20479;-67
2024/01/03 08:29:38;;;;;;;2.95;1.58;;;9.80;99.90;;;;;;5063820;28;20123;-67
2024/01/03 08:32:04;;;;;;;0.13;0.13;;;9.80;99.90;;;;;;5055499;28;20139;-67
2024/01/03 08:34:30;;;;;;;0.30;0.30;;;9.80;99.90;;;;;;5084111;28;20067;-68
2024/01/03 08:36:55;;;;;;;0.80;0.30;;;9.70;99.90;;;;;;5061475;28;20037;-66
2024/01/03 08:39:22;;;;;;;0.10;0.10;;;9.70;99.90;;;;;;5050708;28;20049;-68
2024/01/03 08:41:48;;;;;;;0.00;0.00;;;9.60;99.90;;;;;;5062115;28;20040;-70
2024/01/03 08:44:14;;;;;;;0.32;0.32;;;9.60;99.90;;;;;;5067122;28;20032;-67
2024/01/03 08:46:43;;;;;;;1.67;1.13;;;9.60;99.90;;;;;;5062995;28;20162;-66
2024/01/03 08:49:09;;;;;;;0.20;0.20;;;9.50;99.90;;;;;;5062230;28;20041;-69
2024/01/03 08:51:35;;;;;;;0.73;0.73;;;9.50;99.90;;;;;;5068354;28;20459;-68
2024/01/03 08:54:01;;;;;;;0.68;0.68;;;9.50;99.90;;;;;;5063064;28;20127;-68
2024/01/03 08:56:26;;;;;;;0.50;0.50;;;9.50;99.90;;;;;;5051216;28;20041;-67
2024/01/03 08:58:52;;;;;;;3.50;0.40;;;9.50;99.90;;;;;;5070559;28;20048;-68
2024/01/03 09:01:19;;;;;;;0.57;0.20;;;9.60;99.90;;;;;;5081174;28;20043;-66
2024/01/03 09:03:45;;;;;;;0.05;0.05;;;9.60;99.90;;;;;;5066888;28;20083;-68
2024/01/03 09:06:14;;;;;;;0.00;0.00;;;9.60;99.90;;;;;;5068212;28;20376;-69
2024/01/03 09:08:39;;;;;;;0.65;0.65;;;9.50;99.90;;;;;;5057619;28;20040;-69
2024/01/03 09:11:12;;;;;;;0.25;0.25;;;9.60;99.90;;;;;;5059469;28;20483;-67
2024/01/03 09:13:39;;;;;;;0.10;0.10;;;9.60;99.90;;;;;;5068299;28;20048;-69
2024/01/03 09:16:06;;;;;;;1.08;1.08;;;9.60;99.90;;;;;;5068346;28;20368;-66
2024/01/03 09:18:31;;;;;;;0.20;0.20;;;9.60;99.90;;;;;;5065061;28;20101;-70
2024/01/03 09:21:04;;;;;;;0.10;0.10;;;9.50;99.90;;;;;;5067966;28;20043;-68
2024/01/03 09:23:30;;;;;;;0.08;0.08;;;9.60;99.90;;;;;;5053165;28;20033;-66
2024/01/03 09:25:56;;;;;;;0.00;0.00;;;9.50;99.90;;;;;;5065230;28;20056;-66
2024/01/03 09:28:23;;;;;;;0.30;0.30;;;9.50;99.90;;;;;;5060319;28;20036;-65
2024/01/03 09:30:48;;;;;;;0.20;0.20;;;9.50;99.90;;;;;;5058201;28;20515;-65
2024/01/03 09:33:14;;;;;;;0.47;0.47;;;9.50;99.90;;;;;;5053392;28;20052;-65
2024/01/03 09:35:40;;;;;;;0.20;0.15;;;9.50;99.90;;;;;;5066948;28;20093;-65
2024/01/03 09:38:05;;;;;;;0.15;0.15;;;9.50;99.90;;;;;;5055309;28;20036;-67
2024/01/03 09:40:33;;;;;;;0.10;0.10;;;9.40;99.90;;;;;;5066284;28;20051;-66
2024/01/03 09:43:02;;;;;;;0.45;0.45;;;9.40;99.90;;;;;;5057936;28;20121;-67
2024/01/03 09:45:28;;;;;;;0.20;0.20;;;9.40;99.90;;;;;;5053332;28;20044;-66
2024/01/03 09:47:53;;;;;;;0.00;0.00;;;9.30;99.90;;;;;;5067923;28;20041;-65
2024/01/03 09:50:19;;;;;;;1.08;0.77;;;9.30;99.90;;;;;;5057363;28;20043;-67
2024/01/03 09:52:45;;;;;;;0.35;0.35;;;9.40;99.90;;;;;;5056711;28;20045;-66
2024/01/03 09:55:11;;;;;;;0.08;0.08;;;9.40;99.90;;;;;;5050436;28;20053;-69
2024/01/03 09:57:38;;;;;;;3.35;0.43;;;9.40;99.90;;;;;;5088081;28;20503;-68
2024/01/03 10:00:05;;;;;;;0.60;0.52;;;9.50;99.90;;;;;;5067601;28;20426;-67
2024/01/03 10:02:30;;;;;;;0.65;0.65;;;9.50;99.90;;;;;;5062226;28;20381;-66
2024/01/03 10:04:56;;;;;;;0.00;0.00;;;9.50;99.90;;;;;;5057871;28;20051;-66
2024/01/03 10:07:35;;;;;;;0.20;0.20;;;9.50;99.90;;;;;;5064971;28;20037;-66
2024/01/03 10:10:02;;;;;;;0.20;0.20;;;9.60;99.90;;;;;;5082602;28;20051;-66
2024/01/03 10:12:32;;;;;;;0.30;0.30;;;9.60;99.90;;;;;;5058149;28;20037;-67
2024/01/03 10:15:15;;;;;;;0.57;0.57;;;9.60;99.90;;;;;;5050688;28;20041;-66
2024/01/03 10:17:43;;;;;;;2.85;0.17;;;9.60;99.90;;;;;;5055594;28;20051;-68
2024/01/03 10:20:30;;;;;;;2.22;0.65;;;9.60;99.90;;;;;;5086216;28;20102;-67
2024/01/03 10:23:09;;;;;;;0.10;0.10;;;9.60;99.90;;;;;;5048880;28;20387;-66
2024/01/03 10:25:34;;;;;;;0.80;0.35;;;9.60;99.90;;;;;;5090512;28;20033;-65
2024/01/03 10:28:02;;;;;;;0.75;0.30;;;9.60;99.90;;;;;;5057428;28;20605;-65
2024/01/03 10:30:28;;;;;;;0.20;0.20;;;9.60;99.90;;;;;;5070194;28;20047;-67
2024/01/03 10:33:13;;;;;;;3.35;0.63;;;9.60;99.90;;;;;;5075395;28;20040;-65
2024/01/03 10:35:44;;;;;;;2.45;0.63;;;9.70;99.90;;;;;;5071146;28;20055;-65
2024/01/03 10:38:10;;;;;;;0.00;0.00;;;9.80;99.90;;;;;;5056179;28;20052;-68
2024/01/03 10:40:36;;;;;;;0.15;0.15;;;9.80;99.90;;;;;;5057684;28;20523;-67
2024/01/03 10:43:04;;;;;;;0.40;0.40;;;9.80;99.90;;;;;;5064842;28;20037;-66
2024/01/03 10:45:30;;;;;;;0.35;0.30;;;9.80;99.90;;;;;;5056329;28;20025;-66
2024/01/03 10:47:57;;;;;;;1.50;1.40;;;9.90;99.90;;;;;;5065533;28;20108;-67
2024/01/03 10:50:23;;;;;;;3.75;0.20;;;9.90;99.90;;;;;;5059400;28;20037;-68
2024/01/03 10:52:57;;;;;;;0.15;0.15;;;9.80;99.90;;;;;;5075446;28;20159;-66
2024/01/03 10:55:32;;;;;;;0.20;0.20;;;9.90;99.90;;;;;;5081869;28;20087;-66
2024/01/03 10:58:03;;;;;;;0.17;0.08;;;9.80;99.90;;;;;;5068498;28;20756;-67
2024/01/03 11:00:43;;;;;;;0.28;0.28;;;9.80;99.90;;;;;;5061551;28;20032;-65
2024/01/03 11:03:43;;;;;;;0.15;0.15;;;9.70;99.90;;;;;;5053023;28;20539;-68
2024/01/03 11:06:19;;;;;;;5.15;2.85;;;9.80;99.90;;;;;;5059568;28;20040;-67
2024/01/03 11:08:54;;;;;;;0.80;0.73;;;9.70;99.90;;;;;;5055857;28;20399;-70
2024/01/03 11:11:34;;;;;;;0.10;0.10;;;9.70;99.90;;;;;;5065552;28;20045;-68
2024/01/03 11:14:01;;;;;;;0.65;0.65;;;9.70;99.90;;;;;;5059585;28;20044;-66
2024/01/03 11:16:40;;;;;;;0.40;0.30;;;9.70;99.90;;;;;;5060704;28;20476;-66
2024/01/03 11:19:08;;;;;;;0.43;0.10;;;9.80;99.90;;;;;;5058307;28;20077;-66
2024/01/03 11:21:37;;;;;;;3.40;1.15;;;9.80;99.90;;;;;;5069671;28;20044;-67
2024/01/03 11:24:03;;;;;;;20.80;0.47;;;9.80;99.90;;;;;;5060703;28;20045;-69
2024/01/03 11:26:58;;;;;;;0.10;0.10;;;9.80;99.90;;;;;;5049419;28;20041;-67
2024/01/03 11:29:42;;;;;;;0.28;0.28;;;9.80;99.90;;;;;;5054779;28;20044;-66
2024/01/03 11:32:09;;;;;;;0.15;0.15;;;9.80;99.90;;;;;;5095664;28;20519;-67
2024/01/03 11:34:39;;;;;;;0.22;0.22;;;9.80;99.90;;;;;;5046034;28;20045;-69
2024/01/03 11:37:27;;;;;;;0.45;0.45;;;9.80;99.90;;;;;;5076507;28;20047;-66
2024/01/03 11:39:57;;;;;;;0.20;0.20;;;9.90;99.90;;;;;;5060815;28;20093;-66
2024/01/03 11:42:41;;;;;;;0.30;0.30;;;9.90;99.90;;;;;;5062865;28;20079;-66
2024/01/03 11:45:14;;;;;;;0.93;0.70;;;9.80;99.90;;;;;;5062541;28;20071;-66
2024/01/03 11:47:45;;;;;;;0.10;0.10;;;9.80;99.90;;;;;;5074133;28;20076;-67
2024/01/03 11:50:12;;;;;;;0.57;0.57;;;9.80;99.90;;;;;;5059586;28;20037;-66
2024/01/03 11:52:46;;;;;;;0.10;0.10;;;9.80;99.90;;;;;;5063557;28;20043;-67
2024/01/03 11:55:16;;;;;;;0.20;0.20;;;9.70;99.90;;;;;;5062063;28;20074;-65
2024/01/03 11:57:43;;;;;;;0.22;0.22;;;9.70;99.90;;;;;;5061421;28;20041;-66
2024/01/03 12:00:11;;;;;;;0.35;0.35;;;9.70;99.90;;;;;;5067069;28;20102;-67
2024/01/03 12:02:36;;;;;;;2.08;0.65;;;9.60;99.90;;;;;;5054712;28;20151;-66
2024/01/03 12:05:05;;;;;;;1.02;0.90;;;9.60;99.90;;;;;;5061421;28;20106;-65
2024/01/03 12:07:37;;;;;;;4.75;3.53;;;9.60;99.90;;;;;;5073185;28;20051;-67
2024/01/03 12:10:06;;;;;;;4.38;1.15;;;9.70;99.90;;;;;;5062622;28;20025;-67
2024/01/03 12:12:32;;;;;;;0.15;0.15;;;9.60;99.90;;;;;;5064534;28;20029;-65
2024/01/03 12:14:58;;;;;;;4.18;1.00;;;9.50;99.90;;;;;;5058289;28;20037;-67
2024/01/03 12:17:29;;;;;;;0.85;0.35;;;9.40;99.90;;;;;;5052940;28;20086;-66
2024/01/03 12:20:07;;;;;;;0.22;0.10;;;9.40;99.90;;;;;;5050231;28;20164;-66
2024/01/03 12:22:33;;;;;;;0.25;0.25;;;9.40;99.90;;;;;;5065085;28;20061;-65
2024/01/03 12:24:59;;;;;;;0.20;0.20;;;9.40;99.90;;;;;;5066741;28;20086;-63
2024/01/03 12:27:25;;;;;;;0.05;0.05;;;9.30;99.90;;;;;;5070807;28;20048;-64
2024/01/03 12:29:51;;;;;;;0.30;0.30;;;9.30;99.90;;;;;;5065325;28;20546;-63
2024/01/03 12:32:18;;;;;;;0.13;0.13;;;9.30;99.90;;;;;;5070121;28;20441;-64
2024/01/03 12:34:46;;;;;;;0.20;0.10;;;9.30;99.90;;;;;;5072240;28;20032;-64
2024/01/03 12:37:12;;;;;;;2.03;0.40;;;9.30;99.90;;;;;;5067986;28;20040;-64
2024/01/03 12:39:38;;;;;;;0.10;0.10;;;9.30;99.90;;;;;;5053921;28;20032;-64
2024/01/03 12:42:05;;;;;;;0.00;0.00;;;9.30;99.90;;;;;;5068492;28;20102;-64
2024/01/03 12:44:34;;;;;;;0.10;0.10;;;9.40;99.90;;;;;;5068054;28;20131;-64
2024/01/03 12:47:00;;;;;;;0.25;0.25;;;9.30;99.90;;;;;;5071665;28;20387;-63
2024/01/03 12:49:25;;;;;;;0.32;0.13;;;9.30;99.90;;;;;;5068822;28;20044;-64
2024/01/03 12:51:52;;;;;;;4.03;0.85;;;9.30;99.90;;;;;;5102734;28;20059;-64
2024/01/03 12:54:18;;;;;;;0.10;0.10;;;9.30;99.90;;;;;;5068150;28;20049;-65
2024/01/03 12:56:43;;;;;;;0.20;0.20;;;9.30;99.90;;;;;;5061831;28;20159;-64
2024/01/03 12:59:09;;;;;;;8.75;0.20;;;9.30;99.90;;;;;;5051167;28;20083;-63